Time;durP1;ratioP1;P1;durP2;ratioP2;P2;SDS_P1;SDS_P2;PMS_P1;PMS_P2;Temp;Humidity;BMP_temperature;BMP_pressure;BME280_temperature;BME280_humidity;BME280_pressure;Samples;Min_cycle;Max_cycle;Signal;HPM_P1;HPM_P2
2023/06/24 00:00:06;;;;;;;47.50;38.60;;;;;;;19.91;100.00;98939.16;137327;1276;22039;-80
2023/06/24 00:03:29;;;;;;;49.40;40.30;;;;;;;19.81;100.00;98938.34;137312;1276;22077;-80
2023/06/24 00:06:32;;;;;;;49.70;39.20;;;;;;;19.73;100.00;98939.58;137290;1276;22030;-80
2023/06/24 00:09:34;;;;;;;51.70;39.60;;;;;;;19.71;100.00;98945.27;137314;1276;22514;-80
2023/06/24 00:12:38;;;;;;;46.00;40.10;;;;;;;19.65;100.00;98947.54;137303;1270;22050;-80
2023/06/24 00:15:42;;;;;;;48.40;37.50;;;;;;;19.60;100.00;98946.59;137254;1276;22144;-80
2023/06/24 00:18:45;;;;;;;46.60;39.60;;;;;;;19.59;100.00;98938.67;137326;1276;22014;-80
2023/06/24 00:21:47;;;;;;;49.70;39.90;;;;;;;19.54;100.00;98932.43;137323;1276;22468;-80
2023/06/24 00:24:50;;;;;;;50.90;40.00;;;;;;;19.49;100.00;98932.88;137306;1276;22121;-81
2023/06/24 00:27:52;;;;;;;43.50;35.80;;;;;;;19.48;100.00;98935.71;137302;1276;22472;-81
2023/06/24 00:30:55;;;;;;;40.80;35.00;;;;;;;19.52;100.00;98940.05;137297;1276;22351;-80
2023/06/24 00:33:57;;;;;;;47.40;38.50;;;;;;;19.61;100.00;98935.27;137318;1276;22829;-80
2023/06/24 00:36:59;;;;;;;49.20;37.50;;;;;;;19.66;100.00;98933.38;137296;1276;22070;-76
2023/06/24 00:40:03;;;;;;;47.20;40.00;;;;;;;19.69;100.00;98931.36;137251;1276;22006;-81
2023/06/24 00:43:05;;;;;;;46.10;39.80;;;;;;;19.62;100.00;98932.23;137288;1261;22145;-83
2023/06/24 00:46:08;;;;;;;45.70;40.00;;;;;;;19.55;100.00;98935.23;137209;1276;22187;-80
2023/06/24 00:49:14;;;;;;;44.10;38.40;;;;;;;19.50;100.00;98933.73;137332;1276;22195;-81
2023/06/24 00:52:16;;;;;;;53.90;40.40;;;;;;;19.45;100.00;98941.44;137309;1276;22149;-81
2023/06/24 00:55:20;;;;;;;47.60;38.50;;;;;;;19.38;100.00;98944.05;137334;1276;22091;-81
2023/06/24 00:58:22;;;;;;;50.20;39.10;;;;;;;19.31;100.00;98943.86;137284;1276;22104;-81
2023/06/24 01:01:25;;;;;;;49.70;39.60;;;;;;;19.22;100.00;98947.59;137316;1276;22123;-81
2023/06/24 01:04:27;;;;;;;49.70;39.50;;;;;;;19.13;100.00;98950.95;137264;1276;22680;-82
2023/06/24 01:07:30;;;;;;;46.30;39.80;;;;;;;19.05;100.00;98955.15;137293;1276;22142;-81
2023/06/24 01:10:32;;;;;;;45.00;37.30;;;;;;;18.95;100.00;98959.39;137319;1276;22108;-81
2023/06/24 01:13:35;;;;;;;45.90;37.90;;;;;;;18.90;100.00;98960.20;137275;1276;22038;-81
2023/06/24 01:16:37;;;;;;;47.10;39.00;;;;;;;18.86;100.00;98960.10;137209;1276;22063;-82
2023/06/24 01:19:40;;;;;;;49.80;39.50;;;;;;;18.85;100.00;98959.25;137276;1276;22107;-81
2023/06/24 01:22:46;;;;;;;50.40;39.40;;;;;;;18.82;100.00;98954.02;137295;1276;22233;-81
2023/06/24 01:25:49;;;;;;;55.10;40.70;;;;;;;18.82;100.00;98954.91;137309;1276;22160;-81
2023/06/24 01:28:51;;;;;;;48.90;39.10;;;;;;;18.77;100.00;98956.94;137325;1276;22361;-81
2023/06/24 01:31:54;;;;;;;49.00;35.90;;;;;;;18.75;100.00;98960.50;137368;1276;22083;-81
2023/06/24 01:34:57;;;;;;;42.30;36.20;;;;;;;18.71;100.00;98957.06;137341;1276;22073;-80
2023/06/24 01:37:59;;;;;;;47.70;38.20;;;;;;;18.72;100.00;98957.38;137348;1273;22159;-80
2023/06/24 01:41:02;;;;;;;50.30;38.30;;;;;;;18.74;100.00;98961.23;137312;1276;22119;-80
2023/06/24 01:44:04;;;;;;;49.80;37.70;;;;;;;18.70;100.00;98962.53;137323;1276;22518;-80
2023/06/24 01:47:07;;;;;;;50.60;37.90;;;;;;;18.71;100.00;98954.41;137322;1276;22403;-80
2023/06/24 01:50:11;;;;;;;48.50;38.50;;;;;;;18.74;100.00;98951.53;137305;1276;22058;-80
2023/06/24 01:53:14;;;;;;;49.30;40.20;;;;;;;18.75;100.00;98948.52;137300;1276;22187;-80
2023/06/24 01:56:17;;;;;;;48.10;39.20;;;;;;;18.77;100.00;98951.30;137323;1276;22065;-80
2023/06/24 01:59:20;;;;;;;54.30;39.50;;;;;;;18.71;100.00;98953.17;137343;1273;22102;-80
2023/06/24 02:02:22;;;;;;;52.50;40.00;;;;;;;18.66;100.00;98950.63;137333;1276;22453;-80
2023/06/24 02:05:25;;;;;;;53.90;41.30;;;;;;;18.62;100.00;98958.63;137306;1276;22080;-81
2023/06/24 02:08:27;;;;;;;54.00;43.10;;;;;;;18.59;100.00;98962.55;137345;1276;22059;-80
2023/06/24 02:11:30;;;;;;;56.50;41.60;;;;;;;18.60;100.00;98967.81;137329;1276;22137;-80
2023/06/24 02:14:32;;;;;;;52.50;39.10;;;;;;;18.62;100.00;98980.83;137315;1276;22047;-80
2023/06/24 02:17:34;;;;;;;54.00;41.30;;;;;;;18.70;100.00;98991.27;137350;1276;22548;-80
2023/06/24 02:20:38;;;;;;;56.40;41.90;;;;;;;18.76;100.00;98998.73;137326;1276;22102;-80
2023/06/24 02:23:41;;;;;;;49.80;40.40;;;;;;;18.75;100.00;98999.09;137332;1276;22269;-80
2023/06/24 02:26:44;;;;;;;50.90;40.10;;;;;;;18.72;100.00;98994.94;137333;1276;22607;-80
2023/06/24 02:29:47;;;;;;;48.30;39.60;;;;;;;18.71;100.00;99000.95;137352;1276;22295;-80
2023/06/24 02:32:49;;;;;;;52.90;39.90;;;;;;;18.72;100.00;99005.52;137337;1276;22099;-81
2023/06/24 02:35:52;;;;;;;49.80;37.70;;;;;;;18.74;100.00;99012.87;137313;1276;22091;-81
2023/06/24 02:38:54;;;;;;;47.00;37.30;;;;;;;18.81;100.00;99015.04;137348;1276;22051;-81
2023/06/24 02:41:58;;;;;;;48.00;37.30;;;;;;;18.83;100.00;99011.30;137355;1276;22122;-80
2023/06/24 02:45:00;;;;;;;43.60;36.80;;;;;;;18.81;100.00;99009.58;137351;1276;22472;-80
2023/06/24 02:48:06;;;;;;;46.10;34.90;;;;;;;18.81;100.00;99009.77;137351;1276;22060;-80
2023/06/24 02:51:09;;;;;;;46.60;34.30;;;;;;;18.81;100.00;99009.75;137337;1276;22543;-80
2023/06/24 02:54:12;;;;;;;39.50;31.30;;;;;;;18.90;100.00;99006.92;137337;1276;22063;-81
2023/06/24 02:57:15;;;;;;;47.30;34.70;;;;;;;19.07;100.00;99003.98;137398;1276;22067;-80
2023/06/24 03:00:17;;;;;;;45.60;33.90;;;;;;;19.07;100.00;98999.39;137368;1276;22085;-79
2023/06/24 03:03:20;;;;;;;41.00;32.00;;;;;;;18.88;100.00;98996.73;137382;1276;22132;-81
2023/06/24 03:06:23;;;;;;;34.70;30.70;;;;;;;18.72;100.00;98996.17;137370;1276;22060;-80
2023/06/24 03:09:26;;;;;;;38.40;29.40;;;;;;;18.58;100.00;98998.87;137279;1276;22164;-81
2023/06/24 03:12:28;;;;;;;40.30;29.60;;;;;;;18.52;100.00;98997.75;137284;1276;22152;-81
2023/06/24 03:15:31;;;;;;;39.30;30.50;;;;;;;18.45;100.00;99001.91;137274;1276;22131;-81
2023/06/24 03:18:34;;;;;;;35.60;27.70;;;;;;;18.41;100.00;99000.91;137314;1276;22109;-80
2023/06/24 03:21:36;;;;;;;24.80;20.10;;;;;;;18.52;100.00;99000.21;137299;1276;22056;-80
2023/06/24 03:24:38;;;;;;;18.10;16.00;;;;;;;18.52;100.00;99001.98;137341;1276;22188;-81
2023/06/24 03:27:41;;;;;;;15.90;13.10;;;;;;;18.43;100.00;99011.63;137343;1276;22196;-80
2023/06/24 03:30:43;;;;;;;14.40;13.00;;;;;;;18.38;100.00;99018.60;137291;1276;22101;-80
2023/06/24 03:33:46;;;;;;;20.10;12.20;;;;;;;18.37;100.00;99027.41;137323;1276;22037;-83
2023/06/24 03:36:49;;;;;;;23.90;13.60;;;;;;;18.50;100.00;99029.14;137344;1271;22114;-84
2023/06/24 03:39:57;;;;;;;22.50;13.10;;;;;;;19.15;100.00;99022.52;137270;1271;22113;-84
2023/06/24 03:43:09;;;;;;;21.50;11.80;;;;;;;19.67;100.00;99018.09;137081;1276;22093;-86
2023/06/24 03:46:12;;;;;;;20.30;12.30;;;;;;;20.06;100.00;99015.11;137295;1276;22129;-83
2023/06/24 03:49:18;;;;;;;20.70;11.50;;;;;;;20.08;100.00;99018.62;137309;1276;22023;-84
2023/06/24 03:52:21;;;;;;;19.60;10.40;;;;;;;20.50;100.00;99022.73;137304;1276;22628;-83
2023/06/24 03:55:23;;;;;;;14.40;9.70;;;;;;;20.92;100.00;99034.91;137273;1276;22163;-83
2023/06/24 03:58:29;;;;;;;518.00;51.30;;;;;;;21.39;100.00;99037.52;137260;1276;22223;-83
2023/06/24 04:01:40;;;;;;;448.40;48.30;;;;;;;21.63;100.00;99039.66;137281;1276;22597;-83
2023/06/24 04:04:58;;;;;;;159.00;22.20;;;;;;;21.87;100.00;99044.64;137041;1276;22526;-83
2023/06/24 04:08:00;;;;;;;77.60;16.80;;;;;;;21.74;100.00;99050.83;137248;1276;22116;-83
2023/06/24 04:11:03;;;;;;;118.20;20.80;;;;;;;21.19;100.00;99055.08;137159;1276;22543;-83
2023/06/24 04:14:06;;;;;;;82.50;15.10;;;;;;;20.98;100.00;99057.41;137260;1276;22105;-82
2023/06/24 04:17:09;;;;;;;46.50;11.50;;;;;;;20.98;100.00;99060.95;137149;1276;22304;-82
2023/06/24 04:20:11;;;;;;;65.40;14.00;;;;;;;21.20;100.00;99059.64;137264;1276;22118;-82
2023/06/24 04:23:15;;;;;;;64.60;14.60;;;;;;;21.38;100.00;99053.84;137266;1276;22619;-83
2023/06/24 04:26:17;;;;;;;30.20;12.70;;;;;;;21.36;100.00;99056.20;137154;1276;22255;-82
2023/06/24 04:29:20;;;;;;;23.70;11.80;;;;;;;21.17;100.00;99062.55;137141;1276;22042;-82
2023/06/24 04:32:23;;;;;;;30.10;12.20;;;;;;;21.03;100.00;99071.27;137286;1276;22570;-82
2023/06/24 04:35:26;;;;;;;22.10;10.40;;;;;;;20.73;100.00;99071.64;137306;1276;22561;-82
2023/06/24 04:38:32;;;;;;;30.20;12.30;;;;;;;20.48;100.00;99068.04;137329;1276;22125;-83
2023/06/24 04:41:34;;;;;;;14.60;9.50;;;;;;;20.40;100.00;99068.07;137343;1276;22319;-82
2023/06/24 04:44:37;;;;;;;28.70;10.40;;;;;;;20.27;100.00;99073.45;137273;1270;22110;-81
2023/06/24 04:47:39;;;;;;;24.90;10.10;;;;;;;20.12;100.00;99081.58;137172;1276;22173;-83
2023/06/24 04:50:42;;;;;;;22.60;10.50;;;;;;;20.21;100.00;99089.33;137263;1276;22127;-82
2023/06/24 04:53:45;;;;;;;18.70;9.70;;;;;;;20.25;100.00;99092.05;137330;1276;22193;-82
2023/06/24 04:56:50;;;;;;;21.60;9.70;;;;;;;20.50;100.00;99096.80;137265;1276;22122;-82
2023/06/24 04:59:56;;;;;;;14.40;9.40;;;;;;;20.47;100.00;99097.93;137288;1276;22138;-82
2023/06/24 05:02:58;;;;;;;19.20;9.40;;;;;;;20.32;100.00;99095.98;137297;1276;22102;-83
2023/06/24 05:06:01;;;;;;;18.50;9.70;;;;;;;20.20;100.00;99106.67;137294;1276;22390;-82
2023/06/24 05:09:04;;;;;;;14.70;8.90;;;;;;;19.98;100.00;99105.20;137326;1276;22084;-82
2023/06/24 05:12:06;;;;;;;16.20;9.60;;;;;;;19.97;100.00;99109.13;137313;1276;22141;-82
2023/06/24 05:15:09;;;;;;;18.80;10.00;;;;;;;20.02;100.00;99112.55;137260;1276;22196;-83
2023/06/24 05:18:12;;;;;;;24.30;9.40;;;;;;;20.13;100.00;99117.42;137299;1276;22234;-82
2023/06/24 05:21:14;;;;;;;18.90;9.30;;;;;;;20.23;100.00;99122.15;137252;1276;22070;-83
2023/06/24 05:24:17;;;;;;;14.20;9.20;;;;;;;20.23;100.00;99125.50;137312;1276;22556;-83
2023/06/24 05:27:19;;;;;;;12.60;9.30;;;;;;;20.32;100.00;99126.54;137327;1276;22097;-83
2023/06/24 05:30:24;;;;;;;10.10;8.30;;;;;;;20.54;100.00;99125.34;137292;1276;22059;-83
2023/06/24 05:33:33;;;;;;;11.00;8.40;;;;;;;20.41;100.00;99127.77;137158;1276;22645;-83
2023/06/24 05:36:35;;;;;;;9.50;8.60;;;;;;;20.51;100.00;99122.94;137315;1276;22200;-82
2023/06/24 05:39:38;;;;;;;15.40;8.50;;;;;;;20.50;100.00;99129.52;137336;1276;22171;-83
2023/06/24 05:42:41;;;;;;;12.10;8.60;;;;;;;20.55;100.00;99135.92;137325;1276;22129;-82
2023/06/24 05:45:45;;;;;;;10.00;8.50;;;;;;;20.72;100.00;99137.29;137346;1276;22137;-82
2023/06/24 05:48:47;;;;;;;11.50;8.10;;;;;;;20.89;100.00;99141.48;137294;1276;22169;-83
2023/06/24 05:51:50;;;;;;;14.60;8.50;;;;;;;20.76;100.00;99144.42;137339;1276;22285;-83
2023/06/24 05:54:52;;;;;;;11.20;7.60;;;;;;;20.75;100.00;99151.54;137329;1276;22713;-83
2023/06/24 05:57:55;;;;;;;11.90;8.00;;;;;;;20.71;100.00;99153.40;137307;1276;22543;-82
2023/06/24 06:01:00;;;;;;;12.30;8.00;;;;;;;20.61;100.00;99160.17;137339;1276;22130;-83
2023/06/24 06:04:02;;;;;;;13.20;8.60;;;;;;;20.60;100.00;99158.42;137316;1276;22118;-83
2023/06/24 06:07:05;;;;;;;10.90;8.30;;;;;;;20.84;100.00;99154.70;137338;1273;22156;-81
2023/06/24 06:10:08;;;;;;;10.50;7.10;;;;;;;20.99;100.00;99156.27;137239;1276;22449;-81
2023/06/24 06:13:11;;;;;;;8.40;7.50;;;;;;;20.73;100.00;99160.07;137279;1276;22224;-80
2023/06/24 06:16:13;;;;;;;10.70;7.70;;;;;;;20.40;100.00;99164.37;137325;1276;22076;-82
2023/06/24 06:19:16;;;;;;;7.90;6.90;;;;;;;20.21;100.00;99163.73;137284;1276;22240;-81
2023/06/24 06:22:18;;;;;;;15.40;8.00;;;;;;;20.63;100.00;99165.78;137264;1276;22186;-81
2023/06/24 06:25:21;;;;;;;10.70;7.10;;;;;;;21.10;100.00;99165.91;137221;1276;22136;-82
2023/06/24 06:28:23;;;;;;;9.00;7.50;;;;;;;21.49;100.00;99167.88;137235;1276;22234;-80
2023/06/24 06:31:26;;;;;;;13.50;7.70;;;;;;;21.35;100.00;99167.05;137221;1276;22686;-80
2023/06/24 06:34:28;;;;;;;8.20;7.40;;;;;;;20.99;100.00;99170.94;137165;1276;22110;-80
2023/06/24 06:37:31;;;;;;;8.10;7.30;;;;;;;20.78;100.00;99172.52;137193;1272;22144;-80
2023/06/24 06:40:33;;;;;;;7.70;6.70;;;;;;;20.66;100.00;99165.90;137260;1276;22656;-81
2023/06/24 06:43:35;;;;;;;12.30;7.10;;;;;;;20.75;100.00;99160.38;137205;1276;22146;-81
2023/06/24 06:46:38;;;;;;;7.60;6.90;;;;;;;20.87;100.00;99160.82;137247;1276;22309;-81
2023/06/24 06:49:40;;;;;;;11.00;7.30;;;;;;;20.87;100.00;99160.98;137277;1276;22078;-82
2023/06/24 06:52:46;;;;;;;10.30;7.00;;;;;;;20.83;100.00;99160.92;137305;1276;22178;-81
2023/06/24 06:55:48;;;;;;;7.90;6.50;;;;;;;20.87;100.00;99161.17;137282;1276;22240;-82
2023/06/24 06:58:50;;;;;;;8.20;7.40;;;;;;;20.94;100.00;99162.05;137313;1276;22536;-81
2023/06/24 07:01:53;;;;;;;7.30;6.60;;;;;;;20.97;100.00;99166.21;137299;1276;22158;-81
2023/06/24 07:04:55;;;;;;;7.30;6.60;;;;;;;20.92;100.00;99170.42;137321;1276;22628;-81
2023/06/24 07:07:58;;;;;;;7.50;6.60;;;;;;;20.91;100.00;99165.86;137324;1276;22205;-80
2023/06/24 07:11:00;;;;;;;8.30;6.70;;;;;;;21.05;100.00;99164.96;137308;1276;22528;-81
2023/06/24 07:14:03;;;;;;;9.10;7.50;;;;;;;21.14;100.00;99169.86;137320;1276;22149;-82
2023/06/24 07:17:05;;;;;;;9.30;7.00;;;;;;;21.03;100.00;99169.96;137351;1276;22065;-81
2023/06/24 07:20:08;;;;;;;8.10;6.50;;;;;;;21.03;100.00;99170.67;137329;1276;22706;-81
2023/06/24 07:23:11;;;;;;;8.10;6.90;;;;;;;21.02;100.00;99171.60;137306;1276;22643;-81
2023/06/24 07:26:13;;;;;;;6.80;6.10;;;;;;;20.95;100.00;99173.52;137293;1276;22557;-81
2023/06/24 07:29:16;;;;;;;7.90;6.40;;;;;;;21.01;100.00;99180.29;137285;1276;22134;-81
2023/06/24 07:32:19;;;;;;;7.20;6.40;;;;;;;21.02;100.00;99187.16;136719;1281;22194;-81
2023/06/24 07:35:21;;;;;;;9.20;6.70;;;;;;;20.99;100.00;99190.58;136664;1282;22268;-81
2023/06/24 07:38:23;;;;;;;7.50;6.70;;;;;;;20.97;100.00;99194.34;136691;1281;22195;-81
2023/06/24 07:41:26;;;;;;;7.30;6.60;;;;;;;20.99;100.00;99199.42;136680;1281;22235;-80
2023/06/24 07:44:29;;;;;;;7.60;6.60;;;;;;;21.03;100.00;99208.21;136539;1281;171135;-81
2023/06/24 07:47:32;;;;;;;7.90;6.40;;;;;;;21.04;100.00;99212.05;136659;1281;22225;-81
2023/06/24 07:50:35;;;;;;;7.10;6.40;;;;;;;21.04;100.00;99214.52;137027;1276;22135;-81
2023/06/24 07:53:38;;;;;;;7.80;7.00;;;;;;;21.08;100.00;99217.80;137264;1261;22201;-81
2023/06/24 07:56:40;;;;;;;9.10;5.90;;;;;;;21.15;100.00;99223.64;137263;1276;22225;-81
2023/06/24 07:59:43;;;;;;;6.70;5.90;;;;;;;21.19;100.00;99230.61;137266;1276;22108;-81
2023/06/24 08:02:45;;;;;;;7.40;6.00;;;;;;;21.19;100.00;99228.66;137227;1276;22105;-81
2023/06/24 08:05:49;;;;;;;6.40;5.60;;;;;;;21.22;100.00;99229.14;137204;1276;22116;-81
2023/06/24 08:08:51;;;;;;;;;;;;;;;21.31;100.00;99228.58;137239;1276;22272;-81
2023/06/24 08:11:54;;;;;;;9.20;6.70;;;;;;;21.34;100.00;99228.85;137234;1276;22522;-81
2023/06/24 08:14:56;;;;;;;7.90;6.30;;;;;;;21.30;100.00;99235.33;137272;1276;22102;-82
2023/06/24 08:17:59;;;;;;;6.00;5.40;;;;;;;21.16;100.00;99241.13;137310;1276;22083;-83
2023/06/24 08:21:01;;;;;;;8.20;5.70;;;;;;;21.09;100.00;99245.38;137321;1274;22171;-83
2023/06/24 08:24:06;;;;;;;15.00;6.20;;;;;;;21.06;100.00;99244.39;137299;1276;22276;-82
2023/06/24 08:27:09;;;;;;;11.40;6.30;;;;;;;21.07;100.00;99244.02;137303;1276;22313;-80
2023/06/24 08:30:11;;;;;;;8.10;6.10;;;;;;;21.16;100.00;99236.55;137286;1276;22612;-80
2023/06/24 08:33:14;;;;;;;10.80;6.10;;;;;;;21.19;100.00;99245.31;137278;1276;22635;-81
2023/06/24 08:36:17;;;;;;;8.40;5.80;;;;;;;21.27;100.00;99244.60;137277;1276;22323;-80
2023/06/24 08:39:19;;;;;;;9.10;5.60;;;;;;;21.46;100.00;99245.90;137303;1276;22185;-80
2023/06/24 08:42:21;;;;;;;6.80;5.90;;;;;;;21.61;100.00;99247.09;137317;1276;22198;-81
2023/06/24 08:45:24;;;;;;;10.00;6.00;;;;;;;21.84;100.00;99250.40;137379;1276;22087;-81
2023/06/24 08:48:26;;;;;;;6.70;5.80;;;;;;;21.90;100.00;99254.13;137327;1276;22077;-81
2023/06/24 08:51:29;;;;;;;6.40;5.50;;;;;;;21.93;100.00;99257.92;137316;1276;22104;-81
2023/06/24 08:54:31;;;;;;;7.30;5.70;;;;;;;21.99;100.00;99256.36;137367;1276;22470;-81
2023/06/24 08:57:34;;;;;;;7.40;5.60;;;;;;;21.96;100.00;99262.12;137309;1276;22116;-81
2023/06/24 09:00:36;;;;;;;6.30;5.70;;;;;;;21.91;100.00;99257.10;137372;1276;22481;-82
2023/06/24 09:03:39;;;;;;;6.70;5.70;;;;;;;21.93;100.00;99261.13;137335;1276;22185;-82
2023/06/24 09:06:41;;;;;;;7.10;6.00;;;;;;;21.88;100.00;99260.38;137361;1276;22101;-81
2023/06/24 09:09:44;;;;;;;11.00;7.20;;;;;;;21.75;100.00;99264.29;137335;1276;22605;-81
2023/06/24 09:12:47;;;;;;;7.80;6.30;;;;;;;21.61;100.00;99267.10;137319;1276;22695;-82
2023/06/24 09:15:49;;;;;;;11.70;6.60;;;;;;;21.53;100.00;99264.46;137332;1276;22096;-82
2023/06/24 09:18:52;;;;;;;8.90;7.40;;;;;;;21.41;100.00;99267.95;137327;1276;22137;-81
2023/06/24 09:21:54;;;;;;;8.30;7.40;;;;;;;21.18;100.00;99272.05;137376;1276;22216;-81
2023/06/24 09:24:56;;;;;;;9.20;7.70;;;;;;;21.07;100.00;99274.27;137388;1276;22133;-82
2023/06/24 09:27:59;;;;;;;12.00;8.40;;;;;;;21.00;100.00;99275.14;137387;1276;22485;-80
2023/06/24 09:31:02;;;;;;;8.80;7.90;;;;;;;21.03;100.00;99273.29;137406;1269;22320;-81
2023/06/24 09:34:05;;;;;;;8.90;8.10;;;;;;;21.04;100.00;99278.22;137402;1276;22138;-81
2023/06/24 09:39:07;;;;;;;11.90;8.80;;;;;;;20.89;100.00;99279.62;133535;1302;544807;-82
2023/06/24 09:42:11;;;;;;;9.30;8.20;;;;;;;20.83;100.00;99276.25;136265;1287;22475;-81
2023/06/24 09:45:14;;;;;;;11.00;8.70;;;;;;;20.81;100.00;99279.46;136088;1286;22194;-79
2023/06/24 09:48:16;;;;;;;12.10;8.40;;;;;;;20.78;100.00;99276.33;135982;1286;22564;-80
2023/06/24 09:51:19;;;;;;;10.90;9.00;;;;;;;20.78;100.00;99277.21;135582;1284;119256;-81
2023/06/24 09:54:21;;;;;;;11.50;9.40;;;;;;;20.80;100.00;99282.30;136925;1276;22553;-79
2023/06/24 09:57:24;;;;;;;11.10;10.00;;;;;;;20.88;100.00;99282.48;137149;1276;22332;-80
2023/06/24 10:00:27;;;;;;;14.10;10.50;;;;;;;21.05;100.00;99282.44;136546;1276;22434;-80
2023/06/24 10:03:29;;;;;;;10.60;9.60;;;;;;;21.24;100.00;99281.84;136668;1275;22570;-81
2023/06/24 10:06:32;;;;;;;11.50;9.80;;;;;;;21.37;100.00;99282.24;137270;1276;22211;-81
2023/06/24 10:09:34;;;;;;;13.10;10.40;;;;;;;21.33;100.00;99284.63;136761;1276;22698;-80
2023/06/24 10:12:37;;;;;;;10.50;9.40;;;;;;;21.39;100.00;99283.61;136449;1275;22272;-80
2023/06/24 10:15:39;;;;;;;11.60;9.50;;;;;;;21.45;100.00;99285.40;137270;1276;22136;-80
2023/06/24 10:18:42;;;;;;;10.50;9.00;;;;;;;21.51;100.00;99287.54;137287;1276;22673;-80
2023/06/24 10:21:44;;;;;;;11.90;8.50;;;;;;;21.54;100.00;99291.70;136202;1276;22586;-81
2023/06/24 10:24:46;;;;;;;11.40;9.00;;;;;;;21.56;100.00;99290.61;137259;1275;22100;-80
2023/06/24 10:27:49;;;;;;;10.30;9.20;;;;;;;21.61;100.00;99291.16;137271;1276;22649;-79
2023/06/24 10:30:51;;;;;;;8.70;7.60;;;;;;;21.71;100.00;99295.05;137338;1275;22211;-80
2023/06/24 10:33:54;;;;;;;9.20;8.10;;;;;;;21.84;100.00;99298.23;137315;1276;22311;-80
2023/06/24 10:36:56;;;;;;;9.20;7.20;;;;;;;22.00;100.00;99290.89;137299;1275;22197;-81
2023/06/24 10:39:59;;;;;;;9.00;8.10;;;;;;;22.22;100.00;99294.21;136640;1260;22226;-81
2023/06/24 10:43:01;;;;;;;11.10;8.70;;;;;;;22.38;100.00;99293.38;136722;1276;22540;-80
2023/06/24 10:46:04;;;;;;;8.60;7.80;;;;;;;22.56;100.00;99294.31;137249;1276;22153;-80
2023/06/24 10:49:06;;;;;;;10.90;8.10;;;;;;;22.78;100.00;99289.59;136752;1276;22221;-81
2023/06/24 10:52:09;;;;;;;8.70;7.90;;;;;;;22.83;100.00;99298.31;137294;1276;22231;-80
2023/06/24 10:55:11;;;;;;;9.10;7.80;;;;;;;22.76;100.00;99299.20;136965;1276;22541;-80
2023/06/24 10:58:20;;;;;;;8.70;7.70;;;;;;;22.61;100.00;99300.02;137166;1272;22292;-81
2023/06/24 11:01:22;;;;;;;9.50;8.60;;;;;;;22.42;100.00;99300.91;136916;1272;22261;-80
2023/06/24 11:04:25;;;;;;;8.80;8.00;;;;;;;22.23;100.00;99299.32;137256;1272;22640;-81
2023/06/24 11:07:28;;;;;;;8.30;7.50;;;;;;;22.25;100.00;99296.95;136823;1272;22230;-79
2023/06/24 11:10:30;;;;;;;9.70;8.00;;;;;;;22.36;100.00;99294.68;136969;1272;22249;-82
2023/06/24 11:13:33;;;;;;;8.00;7.20;;;;;;;22.35;100.00;99294.89;137393;1272;22550;-80
2023/06/24 11:16:37;;;;;;;9.90;7.40;;;;;;;22.32;100.00;99298.35;137108;1272;22918;-79
2023/06/24 11:19:40;;;;;;;10.70;7.30;;;;;;;22.25;100.00;99292.52;136855;1272;22171;-80
2023/06/24 11:22:43;;;;;;;7.50;6.80;;;;;;;22.14;100.00;99293.52;137124;1272;22532;-81
2023/06/24 11:25:45;;;;;;;8.40;7.60;;;;;;;21.96;100.00;99293.31;137405;1267;22218;-81
2023/06/24 11:28:49;;;;;;;9.90;8.40;;;;;;;21.75;100.00;99301.30;136981;1272;22641;-81
2023/06/24 11:31:51;;;;;;;10.10;9.20;;;;;;;21.48;100.00;99305.15;137002;1260;23289;-81
2023/06/24 11:34:54;;;;;;;11.40;10.10;;;;;;;21.27;100.00;99310.45;137584;1272;22428;-83
2023/06/24 11:37:56;;;;;;;12.80;10.20;;;;;;;21.06;100.00;99307.91;137080;1272;22304;-83
2023/06/24 11:40:59;;;;;;;11.30;10.20;;;;;;;20.96;100.00;99306.19;137498;1272;22535;-82
2023/06/24 11:44:01;;;;;;;11.30;10.20;;;;;;;20.98;100.00;99307.74;137459;1272;22397;-83
2023/06/24 11:47:04;;;;;;;11.80;10.60;;;;;;;20.97;100.00;99309.35;137463;1272;22439;-84
2023/06/24 11:50:06;;;;;;;12.00;10.70;;;;;;;20.85;100.00;99309.81;137338;1272;22261;-83
2023/06/24 11:53:09;;;;;;;10.60;9.60;;;;;;;20.84;100.00;99306.28;137615;1267;22509;-82
2023/06/24 11:56:11;;;;;;;11.90;10.10;;;;;;;20.94;100.00;99310.48;137431;1272;22268;-82
2023/06/24 11:59:17;;;;;;;11.10;10.00;;;;;;;20.91;100.00;99311.80;137643;1272;22609;-82
2023/06/24 12:02:19;;;;;;;10.50;9.40;;;;;;;20.81;100.00;99308.45;137474;1272;22207;-83
2023/06/24 12:05:26;;;;;;;13.00;10.00;;;;;;;20.76;100.00;99312.46;137352;1272;22709;-83
2023/06/24 12:08:29;;;;;;;15.40;10.20;;;;;;;20.89;100.00;99315.02;137301;1273;22073;-84
2023/06/24 12:11:32;;;;;;;13.00;10.80;;;;;;;20.84;100.00;99316.89;137372;1272;22517;-81
2023/06/24 12:14:34;;;;;;;10.60;9.60;;;;;;;20.71;100.00;99319.80;137295;1272;22201;-83
2023/06/24 12:17:37;;;;;;;11.90;10.70;;;;;;;20.54;100.00;99320.88;137051;1272;22903;-79
2023/06/24 12:20:39;;;;;;;17.20;10.90;;;;;;;20.39;100.00;99326.13;137518;1272;22281;-81
2023/06/24 12:23:42;;;;;;;15.70;10.50;;;;;;;20.33;100.00;99326.92;137534;1272;22229;-81
2023/06/24 12:26:46;;;;;;;12.70;10.60;;;;;;;20.20;100.00;99331.42;137415;1272;22209;-86
2023/06/24 12:29:49;;;;;;;14.90;10.90;;;;;;;20.08;100.00;99332.19;137164;1266;22229;-82
2023/06/24 12:32:51;;;;;;;12.50;11.20;;;;;;;20.05;100.00;99331.90;137257;1272;22528;-83
2023/06/24 12:35:54;;;;;;;15.50;12.10;;;;;;;19.94;100.00;99336.48;136991;1272;22263;-83
2023/06/24 12:38:56;;;;;;;14.00;12.50;;;;;;;19.78;100.00;99337.48;137054;1272;22928;-85
2023/06/24 12:41:59;;;;;;;16.10;11.80;;;;;;;19.58;100.00;99339.92;137617;1272;22584;-85
2023/06/24 12:45:43;;;;;;;15.90;13.10;;;;;;;19.61;100.00;99343.06;132141;1313;544902;-84
2023/06/24 12:48:44;;;;;;;15.40;13.90;;;;;;;19.65;100.00;99350.05;135610;1286;23974;-82
2023/06/24 12:51:45;;;;;;;16.80;15.00;;;;;;;19.67;100.00;99353.73;136237;1283;22684;-85
2023/06/24 12:54:47;;;;;;;16.10;14.40;;;;;;;19.61;100.00;99357.02;135841;1283;22274;-84
2023/06/24 12:57:48;;;;;;;17.80;14.90;;;;;;;19.54;100.00;99359.23;135731;1281;239017;-85
2023/06/24 13:00:50;;;;;;;22.00;15.10;;;;;;;19.52;100.00;99362.08;136648;1280;22576;-82
2023/06/24 13:03:51;;;;;;;16.90;15.30;;;;;;;19.51;100.00;99365.63;136308;1280;23167;-84
2023/06/24 13:06:52;;;;;;;16.40;14.70;;;;;;;19.45;100.00;99364.64;136279;1279;22263;-83
2023/06/24 13:09:53;;;;;;;16.50;14.80;;;;;;;19.55;100.00;99370.33;136659;1279;22567;-85
2023/06/24 13:12:56;;;;;;;23.10;16.50;;;;;;;19.72;100.00;99367.08;136400;1279;22565;-83
2023/06/24 13:15:57;;;;;;;18.70;15.00;;;;;;;19.80;100.00;99372.58;136269;1279;22291;-85
2023/06/24 13:18:58;;;;;;;17.60;15.20;;;;;;;19.83;100.00;99372.36;136427;1279;22546;-84
2023/06/24 13:21:59;;;;;;;18.00;15.30;;;;;;;19.83;100.00;99375.19;136531;1279;22152;-85
2023/06/24 13:25:00;;;;;;;16.00;14.30;;;;;;;19.83;100.00;99376.77;136251;1280;22191;-85
2023/06/24 13:28:01;;;;;;;14.90;13.50;;;;;;;19.91;100.00;99380.16;136438;1280;24204;-83
2023/06/24 13:31:03;;;;;;;15.90;14.00;;;;;;;20.02;100.00;99373.46;136742;1279;23039;-85
2023/06/24 13:34:04;;;;;;;19.50;14.30;;;;;;;20.29;100.00;99375.09;136320;1279;22258;-84
2023/06/24 13:37:05;;;;;;;20.20;14.30;;;;;;;20.35;100.00;99375.50;136419;1273;23103;-84
2023/06/24 13:40:06;;;;;;;15.60;13.90;;;;;;;20.05;100.00;99376.04;136800;1279;22769;-83
2023/06/24 13:43:07;;;;;;;14.60;13.20;;;;;;;19.75;100.00;99374.61;136295;1279;22537;-83
2023/06/24 13:46:08;;;;;;;14.80;13.30;;;;;;;19.52;100.00;99376.03;136310;1276;22061;-84
2023/06/24 13:49:09;;;;;;;18.60;14.40;;;;;;;19.39;100.00;99375.69;136729;1279;22263;-84